Time;durP1;ratioP1;P1;durP2;ratioP2;P2;SDS_P1;SDS_P2;PMS_P1;PMS_P2;Temp;Humidity;BMP_temperature;BMP_pressure;BME280_temperature;BME280_humidity;BME280_pressure;Samples;Min_cycle;Max_cycle;Signal;HPM_P1;HPM_P2
2022/03/30 00:00:34;;;;;;;;;;;9.50;99.90;;;;;;5036867;28;20011;-78
2022/03/30 00:03:02;;;;;;;;;;;9.50;99.90;;;;;;5036882;28;19928;-77
2022/03/30 00:05:28;;;;;;;;;;;9.50;99.90;;;;;;5036766;28;19939;-77
2022/03/30 00:07:55;;;;;;;;;;;9.50;99.90;;;;;;5036922;28;19925;-77
2022/03/30 00:10:22;;;;;;;;;;;9.40;99.90;;;;;;5036625;28;19925;-77
2022/03/30 00:12:49;;;;;;;;;;;9.50;99.90;;;;;;5036819;28;19932;-78
2022/03/30 00:15:16;;;;;;;;;;;9.40;99.90;;;;;;5035984;28;19925;-78
2022/03/30 00:17:45;;;;;;;;;;;9.50;99.90;;;;;;5036530;28;19925;-78
2022/03/30 00:20:12;;;;;;;;;;;9.40;99.90;;;;;;5036491;28;19929;-77
2022/03/30 00:22:40;;;;;;;;;;;9.40;99.90;;;;;;5036699;28;19932;-77
2022/03/30 00:25:07;;;;;;;;;;;9.40;99.90;;;;;;5036278;28;19960;-78
2022/03/30 00:27:34;;;;;;;;;;;9.40;99.90;;;;;;5036661;28;19925;-78
2022/03/30 00:30:01;;;;;;;;;;;9.30;99.90;;;;;;5036683;28;20027;-77
2022/03/30 00:32:28;;;;;;;;;;;9.30;99.90;;;;;;5036059;28;19929;-77
2022/03/30 00:34:56;;;;;;;;;;;9.30;99.90;;;;;;5035962;28;19924;-78
2022/03/30 00:37:23;;;;;;;;;;;9.20;99.90;;;;;;5036387;28;19925;-78
2022/03/30 00:39:51;;;;;;;;;;;9.20;99.90;;;;;;5036128;28;19944;-77
2022/03/30 00:42:20;;;;;;;;;;;9.10;99.90;;;;;;5036164;28;19925;-77
2022/03/30 00:44:47;;;;;;;;;;;9.10;99.90;;;;;;5036009;28;19932;-77
2022/03/30 00:47:15;;;;;;;;;;;9.00;99.90;;;;;;5052360;28;20032;-78
2022/03/30 00:49:42;;;;;;;;;;;9.00;99.90;;;;;;5035581;28;19928;-78
2022/03/30 00:52:10;;;;;;;;;;;9.00;99.90;;;;;;5036213;28;19928;-77
2022/03/30 00:54:38;;;;;;;;;;;9.00;99.90;;;;;;5036565;28;19925;-77
2022/03/30 00:57:05;;;;;;;;;;;9.00;99.90;;;;;;5036494;28;20015;-78
2022/03/30 00:59:33;;;;;;;;;;;9.00;99.90;;;;;;5035800;28;19928;-78
2022/03/30 01:02:00;;;;;;;;;;;9.00;99.90;;;;;;5036011;28;19925;-78
2022/03/30 01:04:27;;;;;;;;;;;9.00;99.90;;;;;;5035651;28;19925;-77
2022/03/30 01:06:53;;;;;;;;;;;9.00;99.90;;;;;;5035360;28;20383;-77
2022/03/30 01:09:22;;;;;;;;;;;8.90;99.90;;;;;;5035136;28;19924;-78
2022/03/30 01:11:50;;;;;;;;;;;8.90;99.90;;;;;;5035776;28;19929;-77
2022/03/30 01:14:16;;;;;;;;;;;8.90;99.90;;;;;;5035163;28;19964;-77
2022/03/30 01:16:43;;;;;;;;;;;8.90;99.90;;;;;;5035616;28;19932;-77
2022/03/30 01:19:11;;;;;;;;;;;8.90;99.90;;;;;;5035158;28;19925;-78
2022/03/30 01:21:40;;;;;;;;;;;8.90;99.90;;;;;;5035601;28;19929;-78
2022/03/30 01:24:08;;;;;;;;;;;8.80;99.90;;;;;;5035196;28;19924;-77
2022/03/30 01:26:35;;;;;;;;;;;8.80;99.90;;;;;;5051978;28;19925;-77
2022/03/30 01:32:24;;;;;;;;;;;8.80;99.90;;;;;;5034680;28;19986;-77
2022/03/30 01:34:34;;;;;;;;;;;8.80;99.90;;;;;;5050863;28;20285;-77
2022/03/30 01:37:03;;;;;;;;;;;8.80;99.90;;;;;;5035033;28;19978;-77
2022/03/30 01:39:30;;;;;;;;;;;8.70;99.90;;;;;;5034762;28;20296;-77
2022/03/30 01:41:57;;;;;;;;;;;8.70;99.90;;;;;;5035057;28;19929;-78
2022/03/30 01:44:24;;;;;;;;;;;8.70;99.90;;;;;;5034874;28;19932;-77
2022/03/30 01:46:51;;;;;;;;;;;8.70;99.90;;;;;;5034803;28;19925;-77
2022/03/30 01:49:21;;;;;;;;;;;8.70;99.90;;;;;;5051219;28;19925;-77
2022/03/30 01:51:48;;;;;;;;;;;8.70;99.90;;;;;;5034949;28;19925;-77
2022/03/30 01:54:17;;;;;;;;;;;8.70;99.90;;;;;;5034647;28;19967;-77
2022/03/30 01:56:44;;;;;;;;;;;8.70;99.90;;;;;;5034486;28;20331;-77
2022/03/30 01:59:11;;;;;;;;;;;8.60;99.90;;;;;;5034409;28;19975;-77
2022/03/30 02:01:38;;;;;;;;;;;8.60;99.90;;;;;;5034385;28;20023;-77
2022/03/30 02:04:06;;;;;;;;;;;8.60;99.90;;;;;;5051152;28;19963;-77
2022/03/30 02:06:32;;;;;;;;;;;8.60;99.90;;;;;;5034699;28;19924;-77
2022/03/30 02:08:59;;;;;;;;;;;8.50;99.90;;;;;;5034472;28;19924;-78
2022/03/30 02:11:28;;;;;;;;;;;8.50;99.90;;;;;;5034539;28;19933;-77
2022/03/30 02:13:55;;;;;;;;;;;8.50;99.90;;;;;;5034209;28;19967;-77
2022/03/30 02:16:22;;;;;;;;;;;8.40;99.90;;;;;;5034055;28;19929;-78
2022/03/30 02:18:49;;;;;;;;;;;8.40;99.90;;;;;;5033781;28;19925;-76
2022/03/30 02:21:16;;;;;;;;;;;8.40;99.90;;;;;;5034386;28;19925;-78
2022/03/30 02:23:45;;;;;;;;;;;8.40;99.90;;;;;;5034287;28;19937;-77
2022/03/30 02:26:12;;;;;;;;;;;8.40;99.90;;;;;;5034184;28;19931;-78
2022/03/30 02:28:40;;;;;;;;;;;8.30;99.90;;;;;;5034180;28;19975;-77
2022/03/30 02:31:07;;;;;;;;;;;8.20;99.90;;;;;;5037265;28;19931;-78
2022/03/30 02:33:34;;;;;;;;;;;8.20;99.90;;;;;;5049591;28;19928;-77
2022/03/30 02:36:01;;;;;;;;;;;8.20;99.90;;;;;;5049506;28;19968;-77
2022/03/30 02:38:27;;;;;;;;;;;8.10;99.90;;;;;;5054115;28;19974;-77
2022/03/30 02:40:54;;;;;;;;;;;8.10;99.90;;;;;;5054060;28;20299;-77
2022/03/30 02:43:21;;;;;;;;;;;8.00;99.90;;;;;;5053751;28;19936;-77
2022/03/30 02:45:50;;;;;;;;;;;8.00;99.90;;;;;;5053419;28;19924;-77
2022/03/30 02:48:19;;;;;;;;;;;7.90;99.90;;;;;;5060455;28;19982;-77
2022/03/30 02:50:47;;;;;;;;;;;7.90;99.90;;;;;;5037905;28;19955;-80
2022/03/30 02:53:14;;;;;;;;;;;7.90;99.90;;;;;;5037063;28;19928;-77
2022/03/30 02:55:40;;;;;;;;;;;7.80;99.90;;;;;;5033664;28;19925;-77
2022/03/30 02:58:08;;;;;;;;;;;7.90;99.90;;;;;;5034142;28;19924;-77
2022/03/30 03:00:35;;;;;;;;;;;7.80;99.90;;;;;;5033498;28;19925;-77
2022/03/30 03:03:04;;;;;;;;;;;7.80;99.90;;;;;;5033902;28;19925;-77
2022/03/30 03:05:32;;;;;;;;;;;7.70;99.90;;;;;;5033468;28;19932;-77
2022/03/30 03:07:58;;;;;;;;;;;7.70;99.90;;;;;;5033990;28;19925;-77
2022/03/30 03:10:25;;;;;;;;;;;7.70;99.90;;;;;;5033865;28;19975;-77
2022/03/30 03:12:52;;;;;;;;;;;7.70;99.90;;;;;;5033700;28;20015;-77
2022/03/30 03:15:19;;;;;;;;;;;7.70;99.90;;;;;;5033022;28;19924;-77
2022/03/30 03:17:45;;;;;;;;;;;7.70;99.90;;;;;;5033716;28;20450;-78
2022/03/30 03:20:14;;;;;;;;;;;7.70;99.90;;;;;;5049807;28;20292;-77
2022/03/30 03:22:41;;;;;;;;;;;7.70;99.90;;;;;;5033368;28;20454;-78
2022/03/30 03:25:09;;;;;;;;;;;7.70;99.90;;;;;;5033460;28;19929;-77
2022/03/30 03:27:36;;;;;;;;;;;7.70;99.90;;;;;;5033761;28;19975;-77
2022/03/30 03:30:03;;;;;;;;;;;7.70;99.90;;;;;;5033604;28;19972;-77
2022/03/30 03:32:30;;;;;;;;;;;7.70;99.90;;;;;;5053701;28;19925;-78
2022/03/30 03:34:57;;;;;;;;;;;7.70;99.90;;;;;;5036954;28;19939;-78
2022/03/30 03:37:25;;;;;;;;;;;7.70;99.90;;;;;;5037596;28;19925;-77
2022/03/30 03:39:52;;;;;;;;;;;7.70;99.90;;;;;;5037518;28;19925;-77
2022/03/30 03:42:19;;;;;;;;;;;7.70;99.90;;;;;;5037335;28;19924;-77
2022/03/30 03:44:46;;;;;;;;;;;7.70;99.90;;;;;;5036610;28;20352;-78
2022/03/30 03:47:13;;;;;;;;;;;7.70;99.90;;;;;;5037384;28;19974;-78
2022/03/30 03:49:40;;;;;;;;;;;7.70;99.90;;;;;;5037327;28;20343;-78
2022/03/30 03:52:07;;;;;;;;;;;7.70;99.90;;;;;;5037449;28;19932;-77
2022/03/30 03:54:35;;;;;;;;;;;7.70;99.90;;;;;;5036883;28;19937;-78
2022/03/30 03:57:02;;;;;;;;;;;7.70;99.90;;;;;;5037246;28;20035;-77
2022/03/30 03:59:29;;;;;;;;;;;7.70;99.90;;;;;;5037105;28;19928;-77
2022/03/30 04:01:56;;;;;;;;;;;7.70;99.90;;;;;;5036805;28;19929;-77
2022/03/30 04:04:22;;;;;;;;;;;7.60;99.90;;;;;;5036282;28;19958;-77
2022/03/30 04:06:49;;;;;;;;;;;7.60;99.90;;;;;;5036638;28;19932;-77
2022/03/30 04:09:16;;;;;;;;;;;7.60;99.90;;;;;;5053349;28;20366;-78
2022/03/30 04:11:44;;;;;;;;;;;7.50;99.90;;;;;;5038200;28;20300;-80
2022/03/30 04:14:11;;;;;;;;;;;7.50;99.90;;;;;;5038105;28;20301;-81
2022/03/30 04:16:37;;;;;;;;;;;7.40;99.90;;;;;;5039291;28;19925;-78
2022/03/30 04:19:04;;;;;;;;;;;7.40;99.90;;;;;;5036482;28;19947;-77
2022/03/30 04:21:31;;;;;;;;;;;7.40;99.90;;;;;;5036898;28;19925;-77
2022/03/30 04:23:58;;;;;;;;;;;7.40;99.90;;;;;;5036277;28;19964;-77
2022/03/30 04:26:25;;;;;;;;;;;7.30;99.90;;;;;;5036860;28;19925;-77
2022/03/30 04:28:53;;;;;;;;;;;7.30;99.90;;;;;;5036326;28;19925;-77
2022/03/30 04:31:20;;;;;;;;;;;7.40;99.90;;;;;;5053460;28;19925;-78
2022/03/30 04:33:46;;;;;;;;;;;7.40;99.90;;;;;;5036891;28;19936;-79
2022/03/30 04:36:13;;;;;;;;;;;7.30;99.90;;;;;;5040094;28;19925;-78
2022/03/30 04:38:40;;;;;;;;;;;7.30;99.90;;;;;;5036391;28;19931;-77
2022/03/30 04:41:07;;;;;;;;;;;7.30;99.90;;;;;;5036492;28;19929;-78
2022/03/30 04:43:34;;;;;;;;;;;7.30;99.90;;;;;;5035572;28;19970;-77
2022/03/30 04:46:02;;;;;;;;;;;7.20;99.90;;;;;;5036249;28;20392;-78
2022/03/30 04:48:29;;;;;;;;;;;7.20;99.90;;;;;;5036406;28;19925;-78
2022/03/30 04:50:56;;;;;;;;;;;7.20;99.90;;;;;;5036320;28;19974;-78
2022/03/30 04:53:22;;;;;;;;;;;7.10;99.90;;;;;;5046786;28;19978;-81
2022/03/30 04:55:49;;;;;;;;;;;7.10;99.90;;;;;;5050638;28;19925;-78
2022/03/30 04:58:16;;;;;;;;;;;7.10;99.90;;;;;;5047187;28;19933;-77
2022/03/30 05:00:46;;;;;;;;;;;7.00;99.90;;;;;;5038846;28;19925;-79
2022/03/30 05:03:14;;;;;;;;;;;7.00;99.90;;;;;;5044484;28;19929;-79
2022/03/30 05:05:41;;;;;;;;;;;7.00;99.90;;;;;;5050114;28;19925;-80
2022/03/30 05:08:08;;;;;;;;;;;6.90;99.90;;;;;;5045281;28;19975;-78
2022/03/30 05:10:34;;;;;;;;;;;6.90;99.90;;;;;;5053004;28;20031;-80
2022/03/30 05:13:04;;;;;;;;;;;6.90;99.90;;;;;;5080267;28;20449;-78
2022/03/30 05:15:31;;;;;;;;;;;6.80;99.90;;;;;;5074134;28;19924;-77
2022/03/30 05:17:58;;;;;;;;;;;6.80;99.90;;;;;;5076938;28;20422;-78
2022/03/30 05:20:26;;;;;;;;;;;6.80;99.90;;;;;;5072510;28;20331;-78
2022/03/30 05:22:53;;;;;;;;;;;6.70;99.90;;;;;;5070619;28;19925;-79
2022/03/30 05:25:20;;;;;;;;;;;6.70;99.90;;;;;;5056577;28;19925;-78
2022/03/30 05:27:47;;;;;;;;;;;6.70;99.90;;;;;;5055263;28;20020;-78
2022/03/30 05:30:14;;;;;;;;;;;6.60;99.90;;;;;;5055269;28;19932;-78
2022/03/30 05:32:44;;;;;;;;;;;6.60;99.90;;;;;;5052265;28;19967;-78
2022/03/30 05:35:11;;;;;;;;;;;6.60;99.90;;;;;;5055179;28;19931;-79
2022/03/30 05:37:40;;;;;;;;;;;6.60;99.90;;;;;;5042841;28;19929;-77
2022/03/30 05:40:09;;;;;;;;;;;6.50;99.90;;;;;;5034229;28;19978;-77
2022/03/30 05:42:36;;;;;;;;;;;6.50;99.90;;;;;;5067059;28;20342;-77
2022/03/30 05:45:04;;;;;;;;;;;6.50;99.90;;;;;;5038141;28;20326;-78
2022/03/30 05:47:31;;;;;;;;;;;6.50;99.90;;;;;;5034126;28;20016;-77
2022/03/30 05:49:58;;;;;;;;;;;6.50;99.90;;;;;;5034233;28;19932;-77
2022/03/30 05:52:24;;;;;;;;;;;6.50;99.90;;;;;;5034242;28;19936;-77
2022/03/30 05:54:53;;;;;;;;;;;6.50;99.90;;;;;;5033246;28;19964;-77
2022/03/30 05:57:21;;;;;;;;;;;6.50;99.90;;;;;;5034266;28;20331;-78
2022/03/30 05:59:49;;;;;;;;;;;6.50;99.90;;;;;;5033994;28;20392;-78
2022/03/30 06:02:16;;;;;;;;;;;6.50;99.90;;;;;;5036549;28;19948;-79
2022/03/30 06:04:45;;;;;;;;;;;6.50;99.90;;;;;;5050950;28;20334;-78
2022/03/30 06:07:11;;;;;;;;;;;6.50;99.90;;;;;;5054777;28;19925;-80
2022/03/30 06:09:38;;;;;;;;;;;6.60;99.90;;;;;;5055465;28;19924;-82
2022/03/30 06:12:07;;;;;;;;;;;6.60;99.90;;;;;;5040038;28;19929;-79
2022/03/30 06:14:34;;;;;;;;;;;6.60;99.90;;;;;;5037114;28;20408;-78
2022/03/30 06:17:03;;;;;;;;;;;6.60;99.90;;;;;;5036560;28;19924;-79
2022/03/30 06:19:31;;;;;;;;;;;6.60;99.90;;;;;;5036346;28;19951;-79
2022/03/30 06:21:58;;;;;;;;;;;6.60;99.90;;;;;;5036601;28;19978;-79
2022/03/30 06:24:25;;;;;;;;;;;6.70;99.90;;;;;;5034085;28;19935;-77
2022/03/30 06:26:52;;;;;;;;;;;6.80;99.90;;;;;;5037204;28;20020;-78
2022/03/30 06:29:20;;;;;;;;;;;6.80;99.90;;;;;;5069437;28;19978;-79
2022/03/30 06:31:47;;;;;;;;;;;6.80;99.90;;;;;;5035787;28;19929;-78
2022/03/30 06:34:14;;;;;;;;;;;6.80;99.90;;;;;;5044587;28;19933;-77
2022/03/30 06:36:41;;;;;;;;;;;6.70;99.90;;;;;;5056193;28;19931;-77
2022/03/30 06:39:07;;;;;;;;;;;6.80;99.90;;;;;;5049469;28;19928;-77
2022/03/30 06:41:34;;;;;;;;;;;6.80;99.90;;;;;;5042000;28;19931;-77
2022/03/30 06:44:01;;;;;;;;;;;6.80;99.90;;;;;;5054488;28;19925;-79
2022/03/30 06:46:33;;;;;;;;;;;6.90;99.90;;;;;;5057680;28;20000;-79
2022/03/30 06:49:01;;;;;;;;;;;7.00;99.90;;;;;;5059831;28;19928;-80
2022/03/30 06:51:27;;;;;;;;;;;7.00;99.90;;;;;;5055781;28;19932;-79
2022/03/30 06:53:54;;;;;;;;;;;7.10;99.90;;;;;;5054273;28;19954;-79
2022/03/30 06:56:21;;;;;;;;;;;7.20;99.90;;;;;;5055066;28;19932;-77
2022/03/30 06:58:48;;;;;;;;;;;7.20;99.90;;;;;;5053764;28;19924;-76
2022/03/30 07:01:16;;;;;;;;;;;7.20;99.90;;;;;;5054983;28;20395;-77
2022/03/30 07:03:44;;;;;;;;;;;7.30;99.90;;;;;;5054016;28;19999;-77
2022/03/30 07:06:11;;;;;;;;;;;7.30;99.90;;;;;;5058838;28;19951;-78
2022/03/30 07:11:22;;;;;;;;;;;7.50;99.90;;;;;;5050542;28;19920;-80
2022/03/30 07:13:50;;;;;;;;;;;7.50;99.90;;;;;;5046485;28;19925;-80
2022/03/30 07:16:18;;;;;;;;;;;7.50;99.90;;;;;;5059751;28;19932;-77
2022/03/30 07:18:46;;;;;;;;;;;7.50;99.90;;;;;;5055644;28;20376;-78
2022/03/30 07:21:13;;;;;;;;;;;7.50;99.90;;;;;;5056151;28;19925;-82
2022/03/30 07:23:39;;;;;;;;;;;7.60;99.90;;;;;;5053931;28;19931;-80
2022/03/30 07:26:06;;;;;;;;;;;7.60;99.90;;;;;;5056180;28;20411;-81
2022/03/30 07:28:35;;;;;;;;;;;7.60;99.90;;;;;;5056249;28;19928;-79
2022/03/30 07:31:02;;;;;;;;;;;7.70;99.90;;;;;;5059897;28;20031;-81
2022/03/30 07:33:29;;;;;;;;;;;7.70;99.90;;;;;;5072461;28;19932;-78
2022/03/30 07:35:58;;;;;;;;;;;7.70;99.90;;;;;;5058024;28;20308;-76
2022/03/30 07:38:25;;;;;;;;;;;7.70;99.90;;;;;;5059510;28;19925;-76
2022/03/30 07:40:53;;;;;;;;;;;7.80;99.90;;;;;;5058650;28;20419;-76
2022/03/30 07:43:20;;;;;;;;;;;7.90;99.90;;;;;;5057812;28;20023;-77
2022/03/30 07:45:47;;;;;;;;;;;8.00;99.90;;;;;;5057291;28;19931;-77
2022/03/30 07:48:14;;;;;;;;;;;7.90;99.90;;;;;;5055310;28;20300;-76
2022/03/30 07:50:42;;;;;;;;;;;7.90;99.90;;;;;;5057094;28;19931;-77
2022/03/30 07:53:10;;;;;;;;;;;8.00;99.90;;;;;;5056649;28;20118;-76
2022/03/30 07:55:38;;;;;;;;;;;8.00;99.90;;;;;;5056749;28;19962;-78
2022/03/30 07:58:05;;;;;;;;;;;8.10;99.90;;;;;;5057529;28;19932;-79
2022/03/30 08:00:32;;;;;;;;;;;8.20;99.90;;;;;;5055996;28;19928;-77
2022/03/30 08:03:00;;;;;;;;;;;8.40;99.90;;;;;;5056134;28;20310;-77
2022/03/30 08:05:26;;;;;;;;;;;8.50;99.90;;;;;;5055655;28;19925;-77
2022/03/30 08:07:53;;;;;;;;;;;8.50;99.90;;;;;;5055230;28;20091;-76
2022/03/30 08:10:22;;;;;;;;;;;8.60;99.90;;;;;;5071218;28;20344;-77
2022/03/30 08:12:50;;;;;;;;;;;8.70;99.90;;;;;;5070741;28;20383;-77
2022/03/30 08:15:17;;;;;;;;;;;8.80;99.90;;;;;;5067832;28;19924;-76
2022/03/30 08:17:44;;;;;;;;;;;8.70;99.90;;;;;;5048535;28;20019;-77
2022/03/30 08:22:25;;;;;;;;;;;8.80;99.90;;;;;;5047635;28;19925;-78
2022/03/30 08:22:58;;;;;;;;;;;8.90;99.90;;;;;;5052705;28;20022;-79
2022/03/30 08:25:26;;;;;;;;;;;9.10;99.90;;;;;;5058001;28;20027;-78
2022/03/30 08:27:53;;;;;;;;;;;9.20;99.90;;;;;;5062392;28;19924;-77
2022/03/30 08:30:20;;;;;;;;;;;9.30;99.90;;;;;;5063615;28;20000;-78
2022/03/30 08:32:47;;;;;;;;;;;9.40;99.90;;;;;;5061951;28;19932;-77
2022/03/30 08:35:14;;;;;;;;;;;9.60;99.90;;;;;;5062370;28;20391;-78
2022/03/30 08:37:41;;;;;;;;;;;9.70;99.90;;;;;;5060855;28;20019;-79
2022/03/30 08:40:08;;;;;;;;;;;9.80;99.90;;;;;;5047930;28;20019;-79
2022/03/30 08:42:38;;;;;;;;;;;10.00;99.90;;;;;;5054382;28;19963;-76
2022/03/30 08:45:06;;;;;;;;;;;10.00;99.90;;;;;;5046473;28;19932;-79
2022/03/30 08:47:33;;;;;;;;;;;10.10;99.90;;;;;;5051602;28;20318;-82
2022/03/30 08:50:00;;;;;;;;;;;10.00;99.90;;;;;;5039727;28;19932;-81
2022/03/30 08:52:27;;;;;;;;;;;10.10;99.90;;;;;;5038418;28;19940;-78
2022/03/30 08:54:54;;;;;;;;;;;10.00;99.90;;;;;;5044678;28;19924;-79
2022/03/30 08:57:21;;;;;;;;;;;10.00;99.90;;;;;;5044047;28;20019;-78
2022/03/30 08:59:59;;;;;;;;;;;10.10;99.90;;;;;;5047222;28;20410;-78
2022/03/30 09:02:33;;;;;;;;;;;10.30;99.90;;;;;;5055856;28;19928;-78
2022/03/30 09:05:12;;;;;;;;;;;10.40;99.90;;;;;;5055198;28;19925;-78
2022/03/30 09:07:40;;;;;;;;;;;10.40;99.90;;;;;;5049957;28;19976;-78
2022/03/30 09:10:12;;;;;;;;;;;10.50;99.90;;;;;;5051958;28;19928;-79
2022/03/30 09:12:39;;;;;;;;;;;10.60;99.90;;;;;;5068646;28;19971;-79
2022/03/30 09:15:08;;;;;;;;;;;10.70;99.90;;;;;;5051087;28;19928;-77
2022/03/30 09:17:39;;;;;;;;;;;10.80;99.90;;;;;;5055201;28;19924;-77
2022/03/30 09:20:06;;;;;;;;;;;10.80;99.90;;;;;;5049792;28;19971;-79
2022/03/30 09:22:33;;;;;;;;;;;11.00;99.90;;;;;;5047926;28;19932;-78
2022/03/30 09:25:00;;;;;;;;;;;11.20;99.90;;;;;;5053155;28;20366;-79
2022/03/30 09:27:27;;;;;;;;;;;11.30;99.90;;;;;;5036311;28;20021;-79
2022/03/30 09:29:54;;;;;;;;;;;11.50;99.90;;;;;;5033342;28;19925;-77
2022/03/30 09:32:22;;;;;;;;;;;11.50;99.90;;;;;;5044402;28;20331;-79
2022/03/30 09:34:50;;;;;;;;;;;11.60;99.90;;;;;;5042889;28;20421;-79
2022/03/30 09:37:17;;;;;;;;;;;11.70;99.90;;;;;;5044127;28;20354;-80
2022/03/30 09:39:44;;;;;;;;;;;11.70;99.90;;;;;;5052228;28;19929;-78
2022/03/30 09:42:13;;;;;;;;;;;11.90;99.90;;;;;;5065408;28;20346;-78
2022/03/30 09:44:45;;;;;;;;;;;12.00;99.90;;;;;;5051781;28;19929;-79
2022/03/30 09:47:12;;;;;;;;;;;11.90;99.90;;;;;;5061850;28;19943;-78
2022/03/30 09:49:41;;;;;;;;;;;11.90;99.90;;;;;;5050100;28;19925;-78
2022/03/30 09:52:12;;;;;;;;;;;11.90;99.90;;;;;;5065576;28;20023;-78
2022/03/30 09:54:40;;;;;;;;;;;11.90;99.90;;;;;;5050426;28;20390;-78
2022/03/30 09:57:11;;;;;;;;;;;11.70;99.90;;;;;;5049850;28;20456;-78
2022/03/30 09:59:57;;;;;;;;;;;11.80;99.90;;;;;;5049867;28;19974;-78
2022/03/30 10:02:24;;;;;;;;;;;11.80;99.90;;;;;;5062265;28;19964;-78
2022/03/30 10:04:52;;;;;;;;;;;12.20;99.90;;;;;;5049996;28;19928;-78
2022/03/30 10:07:20;;;;;;;;;;;12.30;99.90;;;;;;5049655;28;19925;-78
2022/03/30 10:09:48;;;;;;;;;;;12.40;99.90;;;;;;5054066;28;19931;-81
2022/03/30 10:12:17;;;;;;;;;;;12.50;99.90;;;;;;5051325;28;19925;-79
2022/03/30 10:14:44;;;;;;;;;;;12.60;99.90;;;;;;5046869;28;19931;-78
2022/03/30 10:17:11;;;;;;;;;;;12.60;99.90;;;;;;5051637;28;19925;-77
2022/03/30 10:19:42;;;;;;;;;;;12.50;99.90;;;;;;5051583;28;20392;-78
2022/03/30 10:22:18;;;;;;;;;;;12.70;99.90;;;;;;5055255;28;19971;-79
2022/03/30 10:24:53;;;;;;;;;;;12.90;99.90;;;;;;5044687;28;19929;-81
2022/03/30 10:27:26;;;;;;;;;;;13.10;99.90;;;;;;5038148;28;19964;-80
2022/03/30 10:29:54;;;;;;;;;;;13.30;99.90;;;;;;5035212;28;19928;-78
2022/03/30 10:32:22;;;;;;;;;;;13.30;99.90;;;;;;5035383;28;20238;-78
2022/03/30 10:34:51;;;;;;;;;;;13.10;99.90;;;;;;5034692;28;19979;-78
2022/03/30 10:37:26;;;;;;;;;;;13.20;99.90;;;;;;5034247;28;20369;-78
2022/03/30 10:39:57;;;;;;;;;;;13.20;99.90;;;;;;5033354;28;19925;-78
2022/03/30 10:42:24;;;;;;;;;;;13.20;99.90;;;;;;5050535;28;19936;-78
2022/03/30 10:44:53;;;;;;;;;;;13.40;99.90;;;;;;5053223;28;19924;-77
2022/03/30 10:47:21;;;;;;;;;;;13.50;99.90;;;;;;5054935;28;19928;-78
2022/03/30 10:49:50;;;;;;;;;;;13.70;99.90;;;;;;5040462;28;19956;-78
2022/03/30 10:52:39;;;;;;;;;;;13.60;99.90;;;;;;5033881;28;20320;-78
2022/03/30 10:55:24;;;;;;;;;;;13.70;99.90;;;;;;5044391;28;19932;-77
2022/03/30 10:57:53;;;;;;;;;;;13.90;99.90;;;;;;5036288;28;19939;-78
2022/03/30 11:00:20;;;;;;;;;;;14.10;99.90;;;;;;5034299;28;20023;-77
2022/03/30 11:02:47;;;;;;;;;;;14.20;99.90;;;;;;5034433;28;19924;-78
2022/03/30 11:05:15;;;;;;;;;;;14.20;99.90;;;;;;5034008;28;19925;-78
2022/03/30 11:07:44;;;;;;;;;;;14.20;99.90;;;;;;5049853;28;20387;-80
2022/03/30 11:10:17;;;;;;;;;;;14.40;99.90;;;;;;5050428;28;20350;-76
2022/03/30 11:13:02;;;;;;;;;;;14.60;99.90;;;;;;5052464;28;19928;-81
2022/03/30 11:15:29;;;;;;;;;;;14.80;99.90;;;;;;5068639;28;19933;-78
2022/03/30 11:18:11;;;;;;;;;;;15.00;99.90;;;;;;5053403;28;19931;-77
2022/03/30 11:20:38;;;;;;;;;;;15.00;99.90;;;;;;5060078;28;19925;-78
2022/03/30 11:25:59;;;;;;;;;;;15.40;99.90;;;;;;5110271;27;19912;-78
2022/03/30 11:28:35;;;;;;;;;;;15.50;99.90;;;;;;5110507;28;20401;-78
2022/03/30 11:31:03;;;;;;;;;;;15.60;99.90;;;;;;5109514;28;19924;-78
2022/03/30 11:33:32;;;;;;;;;;;15.60;99.90;;;;;;5116344;28;19924;-78
2022/03/30 11:36:00;;;;;;;;;;;15.80;99.90;;;;;;5116507;28;19924;-79
2022/03/30 11:38:37;;;;;;;;;;;16.00;99.90;;;;;;5116066;28;19923;-79
2022/03/30 11:41:06;;;;;;;;;;;16.10;99.90;;;;;;5104561;28;19928;-79
2022/03/30 11:45:12;;;;;;;;;;;16.50;99.90;;;;;;5107850;28;19924;-79
2022/03/30 11:46:28;;;;;;;;;;;16.80;99.90;;;;;;5113341;28;19925;-79
2022/03/30 11:48:59;;;;;;;;;;;19.00;99.90;;;;;;5105804;28;19938;-79
2022/03/30 11:51:26;;;;;;;;;;;20.60;99.90;;;;;;5105462;28;19955;-78
2022/03/30 11:54:08;;;;;;;;;;;21.70;99.90;;;;;;5104413;28;19924;-79
2022/03/30 11:56:36;;;;;;;;;;;22.90;99.90;;;;;;5106555;28;19931;-79
2022/03/30 11:59:03;;;;;;;;;;;23.90;99.90;;;;;;5103189;28;19924;-78
2022/03/30 12:01:29;;;;;;;;;;;24.90;99.90;;;;;;5108479;28;20448;-79
2022/03/30 12:03:56;;;;;;;;;;;24.60;99.90;;;;;;5120750;28;20019;-80
2022/03/30 12:06:23;;;;;;;;;;;24.10;99.90;;;;;;5109286;27;19932;-79
2022/03/30 12:08:52;;;;;;;;;;;23.50;99.90;;;;;;5102566;28;19928;-79
2022/03/30 12:11:20;;;;;;;;;;;22.80;99.90;;;;;;5104152;28;19924;-79
2022/03/30 12:13:52;;;;;;;;;;;22.80;99.90;;;;;;5103300;28;19929;-79
2022/03/30 12:16:19;;;;;;;;;;;21.30;99.90;;;;;;5114287;28;19924;-79
2022/03/30 12:18:47;;;;;;;;;;;22.20;99.90;;;;;;5129261;28;19927;-79
2022/03/30 12:21:15;;;;;;;;;;;22.60;99.90;;;;;;5136176;27;19923;-79
2022/03/30 12:23:52;;;;;;;;;;;23.00;99.90;;;;;;5138672;27;19976;-79
2022/03/30 12:26:19;;;;;;;;;;;23.30;99.90;;;;;;5156465;27;19930;-79
2022/03/30 12:28:46;;;;;;;;;;;23.40;99.90;;;;;;5153629;27;19923;-78
2022/03/30 12:31:15;;;;;;;;;;;23.20;99.90;;;;;;5142256;27;19924;-79
2022/03/30 12:33:45;;;;;;;;;;;23.70;99.90;;;;;;5117441;27;20026;-79
2022/03/30 12:36:16;;;;;;;;;;;23.50;99.90;;;;;;5120324;27;19924;-80
2022/03/30 12:38:43;;;;;;;;;;;24.10;99.90;;;;;;5112238;27;19924;-79
2022/03/30 12:41:11;;;;;;;;;;;24.00;99.90;;;;;;5104839;27;20415;-79
2022/03/30 12:43:39;;;;;;;;;;;24.70;99.90;;;;;;5136714;27;19923;-79
2022/03/30 12:46:14;;;;;;;;;;;24.80;99.90;;;;;;5138272;27;19930;-80
2022/03/30 12:48:43;;;;;;;;;;;24.50;99.90;;;;;;5138002;27;19927;-79
2022/03/30 12:51:17;;;;;;;;;;;24.30;99.90;;;;;;5137902;27;20022;-80
2022/03/30 12:53:46;;;;;;;;;;;23.80;99.90;;;;;;5125981;27;19931;-79
2022/03/30 12:56:14;;;;;;;;;;;23.80;99.90;;;;;;5118781;27;19927;-80
2022/03/30 12:59:00;;;;;;;;;;;23.80;99.90;;;;;;5124186;27;19928;-79
2022/03/30 13:01:30;;;;;;;;;;;23.90;99.90;;;;;;5118702;28;19924;-79
2022/03/30 13:03:58;;;;;;;;;;;23.80;99.90;;;;;;5115992;28;19923;-81
2022/03/30 13:06:25;;;;;;;;;;;23.40;99.90;;;;;;5115890;27;19932;-80
2022/03/30 13:09:08;;;;;;;;;;;23.10;99.90;;;;;;5124852;27;19923;-78
2022/03/30 13:11:41;;;;;;;;;;;23.40;99.90;;;;;;5096792;28;19974;-81
2022/03/30 13:14:11;;;;;;;;;;;23.30;99.90;;;;;;5095949;28;19924;-78
2022/03/30 13:16:37;;;;;;;;;;;23.30;99.90;;;;;;5096122;28;20349;-81
2022/03/30 13:19:07;;;;;;;;;;;23.80;99.90;;;;;;5113022;28;19923;-83
2022/03/30 13:21:38;;;;;;;;;;;23.90;99.90;;;;;;5116371;28;20292;-79
2022/03/30 13:24:12;;;;;;;;;;;24.00;99.90;;;;;;5116327;28;19923;-79
2022/03/30 13:26:39;;;;;;;;;;;24.10;99.90;;;;;;5109235;28;19924;-79
2022/03/30 13:29:07;;;;;;;;;;;24.30;99.90;;;;;;5108994;28;19946;-80
2022/03/30 13:31:36;;;;;;;;;;;24.30;99.90;;;;;;5125643;27;19933;-79
2022/03/30 13:34:05;;;;;;;;;;;24.50;99.60;;;;;;5126966;27;19932;-79
2022/03/30 13:36:33;;;;;;;;;;;24.40;99.80;;;;;;5116506;28;20462;-79
2022/03/30 13:39:00;;;;;;;;;;;24.00;99.70;;;;;;5110237;28;19924;-79
2022/03/30 13:41:27;;;;;;;;;;;24.30;99.80;;;;;;5095096;28;19924;-79
2022/03/30 13:43:53;;;;;;;;;;;23.90;99.30;;;;;;5095116;28;19935;-78
2022/03/30 13:46:21;;;;;;;;;;;23.60;99.70;;;;;;5094471;28;20019;-79
2022/03/30 13:48:47;;;;;;;;;;;23.20;99.50;;;;;;5096822;27;19924;-78
2022/03/30 13:51:14;;;;;;;;;;;22.80;99.70;;;;;;5104777;27;19928;-79
2022/03/30 13:53:43;;;;;;;;;;;22.60;99.60;;;;;;5099099;27;20291;-79
2022/03/30 13:56:10;;;;;;;;;;;22.60;99.30;;;;;;5109160;27;19924;-79
2022/03/30 13:58:37;;;;;;;;;;;22.90;99.70;;;;;;5127966;27;19944;-79
2022/03/30 14:01:06;;;;;;;;;;;23.30;99.20;;;;;;5136567;27;19939;-78
2022/03/30 14:03:34;;;;;;;;;;;23.80;98.70;;;;;;5136912;27;19923;-79
2022/03/30 14:06:01;;;;;;;;;;;23.30;98.00;;;;;;5137435;27;19923;-79
2022/03/30 14:08:28;;;;;;;;;;;23.20;97.70;;;;;;5137378;27;20375;-80
2022/03/30 14:10:56;;;;;;;;;;;22.90;97.50;;;;;;5129321;27;19977;-79
2022/03/30 14:13:24;;;;;;;;;;;22.40;97.90;;;;;;5115769;28;19927;-79
2022/03/30 14:15:51;;;;;;;;;;;22.70;98.10;;;;;;5115011;28;19924;-78
2022/03/30 14:18:18;;;;;;;;;;;22.60;98.30;;;;;;5115844;28;19923;-79
2022/03/30 14:20:45;;;;;;;;;;;22.80;98.40;;;;;;5115918;28;19924;-78
2022/03/30 14:23:12;;;;;;;;;;;22.60;97.90;;;;;;5115211;28;19958;-78
2022/03/30 14:25:39;;;;;;;;;;;22.20;97.80;;;;;;5115550;28;19946;-78
2022/03/30 14:28:09;;;;;;;;;;;21.80;97.90;;;;;;5115844;28;19928;-78
2022/03/30 14:30:36;;;;;;;;;;;21.70;97.80;;;;;;5115559;28;19924;-78
2022/03/30 14:33:03;;;;;;;;;;;21.60;97.90;;;;;;5115063;28;19931;-79
2022/03/30 14:35:31;;;;;;;;;;;21.40;96.70;;;;;;5126582;27;19927;-78
2022/03/30 14:37:58;;;;;;;;;;;21.00;96.40;;;;;;5113639;27;19976;-77